Time;durP1;ratioP1;P1;durP2;ratioP2;P2;SDS_P1;SDS_P2;PMS_P1;PMS_P2;Temp;Humidity;BMP_temperature;BMP_pressure;BME280_temperature;BME280_humidity;BME280_pressure;Samples;Min_cycle;Max_cycle;Signal;HPM_P1;HPM_P2
2023/02/27 00:00:54;;;;;;;4.65;2.47;;;3.50;90.50;;;;;;4972639;28;20379;-68
2023/02/27 00:03:20;;;;;;;4.38;2.30;;;3.40;90.50;;;;;;4968560;28;20034;-68
2023/02/27 00:05:45;;;;;;;4.63;2.53;;;3.40;90.50;;;;;;4959844;28;20023;-68
2023/02/27 00:08:11;;;;;;;4.60;2.58;;;3.40;90.60;;;;;;4966350;28;20043;-68
2023/02/27 00:10:37;;;;;;;4.93;2.65;;;3.40;90.60;;;;;;4975954;28;20106;-68
2023/02/27 00:13:03;;;;;;;4.68;2.63;;;3.30;90.60;;;;;;4972644;28;20026;-67
2023/02/27 00:15:30;;;;;;;4.43;2.55;;;3.30;90.70;;;;;;4970582;28;20407;-68
2023/02/27 00:17:57;;;;;;;4.47;2.22;;;3.20;90.70;;;;;;4963460;28;20106;-68
2023/02/27 00:20:25;;;;;;;4.18;2.28;;;3.30;90.80;;;;;;4971628;28;20034;-68
2023/02/27 00:22:50;;;;;;;5.60;3.05;;;3.20;90.80;;;;;;4971081;28;20027;-67
2023/02/27 00:25:16;;;;;;;3.60;2.10;;;3.20;90.90;;;;;;4974626;28;20061;-67
2023/02/27 00:27:42;;;;;;;4.35;2.53;;;3.30;91.00;;;;;;4968911;28;20051;-67
2023/02/27 00:30:11;;;;;;;4.07;2.00;;;3.20;90.90;;;;;;4972826;28;20066;-68
2023/02/27 00:32:37;;;;;;;4.47;2.20;;;3.20;91.00;;;;;;4967848;28;20034;-67
2023/02/27 00:35:04;;;;;;;3.97;2.03;;;3.30;91.00;;;;;;4956245;28;20020;-67
2023/02/27 00:37:30;;;;;;;4.65;2.47;;;3.20;91.00;;;;;;4956172;28;20138;-67
2023/02/27 00:39:55;;;;;;;4.00;2.78;;;3.20;91.00;;;;;;4958210;28;20582;-67
2023/02/27 00:42:21;;;;;;;4.07;2.50;;;3.20;91.00;;;;;;4971355;28;20503;-68
2023/02/27 00:44:46;;;;;;;4.57;2.30;;;3.10;91.00;;;;;;4955504;28;20035;-68
2023/02/27 00:47:12;;;;;;;4.30;2.65;;;3.10;91.10;;;;;;4956504;28;20037;-69
2023/02/27 00:49:38;;;;;;;5.38;2.67;;;3.10;91.10;;;;;;4965034;28;20039;-68
2023/02/27 00:52:04;;;;;;;4.30;2.80;;;3.10;91.20;;;;;;4975188;28;20031;-68
2023/02/27 00:54:29;;;;;;;4.35;2.30;;;3.10;91.20;;;;;;4956393;28;20043;-68
2023/02/27 00:56:55;;;;;;;6.15;2.88;;;3.00;91.20;;;;;;4959277;28;20503;-68
2023/02/27 00:59:20;;;;;;;5.65;3.08;;;3.10;91.30;;;;;;4962747;28;20034;-67
2023/02/27 01:01:46;;;;;;;5.40;2.63;;;3.00;91.30;;;;;;4956036;28;20364;-67
2023/02/27 01:04:12;;;;;;;5.60;2.85;;;3.00;91.30;;;;;;4963512;28;20039;-68
2023/02/27 01:06:37;;;;;;;5.25;2.97;;;3.00;91.40;;;;;;4961800;28;20035;-68
2023/02/27 01:09:04;;;;;;;7.00;2.90;;;3.00;91.40;;;;;;4955594;28;20023;-68
2023/02/27 01:11:29;;;;;;;5.22;2.65;;;3.00;91.50;;;;;;4962555;28;20108;-69
2023/02/27 01:13:55;;;;;;;5.43;3.28;;;3.00;91.50;;;;;;4969618;28;20062;-69
2023/02/27 01:16:22;;;;;;;5.20;2.60;;;3.00;91.50;;;;;;4973378;28;20485;-69
2023/02/27 01:18:47;;;;;;;4.15;2.40;;;3.00;91.80;;;;;;4969946;28;20039;-69
2023/02/27 01:21:13;;;;;;;3.25;2.40;;;3.00;91.60;;;;;;4954873;28;20383;-69
2023/02/27 01:23:39;;;;;;;4.85;2.42;;;3.00;91.60;;;;;;4962686;28;20113;-69
2023/02/27 01:26:04;;;;;;;3.88;2.40;;;3.00;91.70;;;;;;4955649;28;20170;-69
2023/02/27 01:28:30;;;;;;;4.15;2.10;;;3.00;91.70;;;;;;4961179;28;20490;-69
2023/02/27 01:30:55;;;;;;;4.22;2.10;;;3.00;91.80;;;;;;4959705;28;20046;-69
2023/02/27 01:33:21;;;;;;;4.82;2.00;;;2.90;91.80;;;;;;4958558;28;20105;-69
2023/02/27 01:35:47;;;;;;;3.05;2.05;;;3.00;91.80;;;;;;4964443;28;20031;-69
2023/02/27 01:38:12;;;;;;;5.20;2.20;;;2.90;91.70;;;;;;4971751;28;20050;-69
2023/02/27 01:40:40;;;;;;;3.60;2.13;;;2.90;91.80;;;;;;4957424;28;20114;-69
2023/02/27 01:43:09;;;;;;;3.50;2.17;;;2.90;91.80;;;;;;4954681;28;20044;-68
2023/02/27 01:45:41;;;;;;;4.25;2.50;;;2.90;91.90;;;;;;4954893;28;20589;-68
2023/02/27 01:48:22;;;;;;;6.03;2.60;;;2.90;92.00;;;;;;4962635;28;20042;-69
2023/02/27 01:50:56;;;;;;;5.72;2.85;;;2.90;92.10;;;;;;4961363;28;20036;-68
2023/02/27 01:53:24;;;;;;;4.85;2.55;;;2.80;92.00;;;;;;4956617;28;20047;-68
2023/02/27 01:55:56;;;;;;;4.28;2.47;;;2.80;92.10;;;;;;4965488;28;20039;-68
2023/02/27 01:58:29;;;;;;;3.85;2.35;;;2.80;92.10;;;;;;5088221;27;1307451;-69
2023/02/27 02:00:55;;;;;;;4.13;2.30;;;2.80;92.10;;;;;;5128079;28;20023;-68
2023/02/27 02:03:38;;;;;;;3.90;2.17;;;2.70;92.10;;;;;;5127675;28;20044;-68
2023/02/27 02:06:06;;;;;;;4.50;2.03;;;2.70;92.20;;;;;;5125122;28;20027;-69
2023/02/27 02:08:37;;;;;;;4.20;2.17;;;2.70;92.20;;;;;;5128684;28;20073;-68
2023/02/27 02:11:05;;;;;;;4.30;2.50;;;2.70;92.20;;;;;;5127971;27;20308;-68
2023/02/27 02:13:31;;;;;;;4.05;2.47;;;2.70;92.30;;;;;;5127393;27;20037;-68
2023/02/27 02:16:05;;;;;;;4.50;2.10;;;2.70;92.30;;;;;;5117344;28;20074;-68
2023/02/27 02:18:37;;;;;;;4.63;2.47;;;2.70;92.30;;;;;;5112247;28;20442;-68
2023/02/27 02:21:48;;;;;;;5.03;1.95;;;2.70;92.40;;;;;;5126437;28;20059;-68
2023/02/27 02:24:34;;;;;;;5.47;2.35;;;2.70;92.40;;;;;;5116217;28;20023;-68
2023/02/27 02:27:09;;;;;;;4.38;2.67;;;2.70;92.40;;;;;;5112512;28;20081;-68
2023/02/27 02:29:55;;;;;;;4.80;2.28;;;2.60;92.40;;;;;;5121095;27;20023;-69
2023/02/27 02:32:44;;;;;;;4.68;2.00;;;2.60;92.50;;;;;;5109588;28;20038;-68
2023/02/27 02:35:28;;;;;;;4.57;2.08;;;2.60;92.50;;;;;;5117186;28;20130;-68
2023/02/27 02:38:32;;;;;;;4.78;2.38;;;2.60;92.60;;;;;;5114761;27;20082;-69
2023/02/27 02:41:12;;;;;;;4.53;2.42;;;2.60;92.60;;;;;;5074627;28;20031;-69
2023/02/27 02:43:50;;;;;;;3.08;1.73;;;2.60;92.60;;;;;;5108440;28;20028;-71
2023/02/27 02:46:30;;;;;;;5.25;2.03;;;2.60;92.70;;;;;;5117154;28;20489;-69
2023/02/27 02:49:13;;;;;;;3.08;2.17;;;2.60;92.70;;;;;;5112643;27;20032;-69
2023/02/27 02:51:47;;;;;;;3.15;1.92;;;2.60;92.70;;;;;;5109075;27;20032;-69
2023/02/27 02:54:33;;;;;;;3.07;1.90;;;2.60;92.80;;;;;;5113806;28;20055;-69
2023/02/27 02:57:07;;;;;;;5.43;2.40;;;2.50;92.80;;;;;;5109874;27;20128;-69
2023/02/27 02:59:38;;;;;;;3.42;1.98;;;2.60;92.90;;;;;;5125900;28;20364;-69
2023/02/27 03:02:15;;;;;;;4.05;2.03;;;2.50;92.80;;;;;;5108534;27;20027;-69
2023/02/27 03:04:48;;;;;;;4.15;2.78;;;2.60;92.90;;;;;;5128950;27;20051;-69
2023/02/27 03:07:18;;;;;;;4.55;2.65;;;2.60;92.90;;;;;;5120312;28;20031;-69
2023/02/27 03:09:59;;;;;;;4.10;2.00;;;2.60;93.20;;;;;;5111407;28;20028;-69
2023/02/27 03:12:26;;;;;;;4.15;2.17;;;2.60;93.00;;;;;;5102562;28;20020;-69
2023/02/27 03:15:00;;;;;;;7.72;2.03;;;2.60;93.00;;;;;;5092982;28;20031;-69
2023/02/27 03:17:43;;;;;;;4.00;2.25;;;2.60;93.00;;;;;;5076039;28;20055;-69
2023/02/27 03:20:14;;;;;;;3.92;1.85;;;2.50;93.00;;;;;;5093937;28;20115;-69
2023/02/27 03:22:44;;;;;;;4.65;2.15;;;2.50;93.00;;;;;;5102489;28;20103;-69
2023/02/27 03:25:13;;;;;;;4.55;2.20;;;2.50;93.10;;;;;;5102215;28;20031;-69
2023/02/27 03:27:45;;;;;;;3.65;2.10;;;2.50;93.30;;;;;;5099238;28;20069;-69
2023/02/27 03:30:34;;;;;;;3.67;2.10;;;2.50;93.10;;;;;;5102389;28;20024;-69
2023/02/27 03:33:08;;;;;;;4.05;2.10;;;2.50;93.10;;;;;;5112637;28;20031;-69
2023/02/27 03:35:42;;;;;;;;;;;2.40;93.10;;;;;;5096296;28;20501;-70
2023/02/27 03:38:22;;;;;;;3.65;1.70;;;2.40;93.00;;;;;;5109410;28;19923;-70
2023/02/27 03:40:53;;;;;;;4.03;2.10;;;2.30;93.00;;;;;;5102985;28;20024;-70
2023/02/27 03:43:44;;;;;;;4.07;2.28;;;2.30;93.10;;;;;;5114875;28;20023;-69
2023/02/27 03:46:14;;;;;;;3.45;2.13;;;2.30;93.20;;;;;;5095401;28;20106;-69
2023/02/27 03:48:43;;;;;;;2.53;1.70;;;2.30;93.20;;;;;;5103765;28;20031;-69
2023/02/27 03:51:14;;;;;;;3.90;2.17;;;2.20;93.20;;;;;;5101991;28;20501;-69
2023/02/27 03:53:46;;;;;;;3.65;1.98;;;2.20;93.30;;;;;;5110451;28;20027;-69
2023/02/27 03:56:14;;;;;;;4.63;2.10;;;2.20;93.40;;;;;;5099889;28;20071;-69
2023/02/27 03:58:39;;;;;;;4.95;2.33;;;2.20;93.40;;;;;;5095984;28;20058;-70
2023/02/27 04:01:05;;;;;;;4.30;2.10;;;2.20;93.40;;;;;;5095785;28;20020;-68
2023/02/27 04:03:36;;;;;;;5.32;2.20;;;2.20;93.40;;;;;;5113805;27;20116;-69
2023/02/27 04:07:21;;;;;;;3.47;2.05;;;2.20;93.50;;;;;;5088102;28;20027;-69
2023/02/27 04:09:01;;;;;;;6.60;2.60;;;2.20;93.50;;;;;;5113709;28;20290;-69
2023/02/27 04:11:55;;;;;;;5.20;1.95;;;2.20;93.50;;;;;;5097927;28;20042;-68
2023/02/27 04:14:26;;;;;;;3.67;1.88;;;2.20;93.50;;;;;;5086427;28;20115;-69
2023/02/27 04:17:06;;;;;;;3.70;2.10;;;2.20;93.50;;;;;;5102058;28;20036;-70
2023/02/27 04:19:46;;;;;;;8.30;3.17;;;2.10;93.50;;;;;;5107211;28;20471;-70
2023/02/27 04:22:27;;;;;;;3.25;2.10;;;2.10;93.60;;;;;;5092837;28;20039;-70
2023/02/27 04:25:26;;;;;;;4.63;2.47;;;2.10;93.70;;;;;;5091747;28;20028;-70
2023/02/27 04:28:18;;;;;;;3.55;1.80;;;2.10;93.70;;;;;;5083050;28;20029;-69
2023/02/27 04:30:54;;;;;;;3.33;2.00;;;2.10;93.70;;;;;;5096931;28;20078;-69
2023/02/27 04:33:39;;;;;;;4.13;2.25;;;2.10;93.90;;;;;;5107290;28;20176;-69
2023/02/27 04:36:27;;;;;;;3.97;2.42;;;2.00;93.70;;;;;;5097853;28;20055;-69
2023/02/27 04:39:02;;;;;;;3.22;2.40;;;2.00;93.80;;;;;;5092213;28;20508;-69
2023/02/27 04:41:32;;;;;;;4.45;2.30;;;2.00;93.80;;;;;;5103824;28;20020;-70
2023/02/27 04:44:00;;;;;;;4.47;2.40;;;2.00;93.80;;;;;;5099247;28;20036;-69
2023/02/27 04:46:30;;;;;;;5.45;3.03;;;2.00;93.80;;;;;;5104737;28;20027;-69
2023/02/27 04:49:22;;;;;;;4.45;2.60;;;1.90;93.90;;;;;;5109523;28;20016;-69
2023/02/27 04:52:02;;;;;;;3.97;2.45;;;1.90;94.00;;;;;;5087956;28;20521;-70
2023/02/27 04:54:50;;;;;;;3.88;2.15;;;1.80;94.00;;;;;;5081691;28;20032;-70
2023/02/27 04:57:24;;;;;;;5.35;2.45;;;1.80;94.10;;;;;;5100583;28;20396;-69
2023/02/27 04:59:54;;;;;;;4.20;2.55;;;1.90;94.10;;;;;;5105303;28;20490;-70
2023/02/27 05:02:35;;;;;;;5.88;3.17;;;1.90;94.10;;;;;;5105444;28;20028;-70
2023/02/27 05:05:06;;;;;;;4.47;2.50;;;1.90;94.20;;;;;;5097381;28;20044;-70
2023/02/27 05:07:48;;;;;;;4.78;2.55;;;1.90;94.10;;;;;;5101596;28;20114;-70
2023/02/27 05:10:28;;;;;;;3.83;2.17;;;2.00;94.10;;;;;;5090203;28;20027;-70
2023/02/27 05:13:06;;;;;;;5.68;2.75;;;1.90;94.10;;;;;;5099012;28;20059;-70
2023/02/27 05:15:42;;;;;;;7.57;2.67;;;1.90;94.20;;;;;;5077165;28;20024;-70
2023/02/27 05:18:10;;;;;;;3.58;2.33;;;1.90;94.20;;;;;;5101526;28;20046;-70
2023/02/27 05:20:47;;;;;;;5.47;2.33;;;1.90;94.30;;;;;;5088872;28;20028;-70
2023/02/27 05:23:37;;;;;;;6.93;3.08;;;1.90;94.30;;;;;;5076149;28;20035;-70
2023/02/27 05:26:23;;;;;;;4.05;2.63;;;1.90;94.30;;;;;;5101947;28;20076;-70
2023/02/27 05:29:04;;;;;;;4.70;2.60;;;1.90;94.40;;;;;;5101952;28;20035;-70
2023/02/27 05:31:45;;;;;;;4.35;2.65;;;2.00;94.40;;;;;;5097909;28;20049;-70
2023/02/27 05:34:18;;;;;;;4.45;2.95;;;2.00;94.50;;;;;;5091939;28;20395;-69
2023/02/27 05:36:57;;;;;;;4.50;2.58;;;2.00;94.50;;;;;;5096022;28;20043;-69
2023/02/27 05:39:28;;;;;;;8.55;2.80;;;2.10;94.50;;;;;;5089267;28;20070;-70
2023/02/27 05:42:01;;;;;;;4.63;2.38;;;2.00;94.50;;;;;;5094965;28;20645;-69
2023/02/27 05:44:41;;;;;;;5.20;3.10;;;2.00;94.60;;;;;;5091141;28;20031;-69
2023/02/27 05:47:12;;;;;;;5.18;2.70;;;2.00;94.60;;;;;;5098443;28;20107;-69
2023/02/27 05:49:42;;;;;;;5.60;2.90;;;2.00;94.70;;;;;;5101161;28;20042;-71
2023/02/27 05:52:11;;;;;;;6.35;3.08;;;2.10;94.70;;;;;;5106315;28;20024;-68
2023/02/27 05:54:46;;;;;;;5.53;2.63;;;2.10;94.70;;;;;;5098198;28;20043;-68
2023/02/27 05:57:18;;;;;;;4.78;2.70;;;2.10;94.70;;;;;;5109845;28;20055;-68
2023/02/27 05:59:56;;;;;;;3.92;2.58;;;2.10;94.70;;;;;;5082122;28;20487;-69
2023/02/27 06:02:23;;;;;;;5.07;2.50;;;2.10;94.70;;;;;;5090447;28;20028;-69
2023/02/27 06:04:48;;;;;;;5.07;3.03;;;2.10;94.70;;;;;;5089535;28;20225;-69
2023/02/27 06:07:14;;;;;;;6.47;3.08;;;2.10;94.70;;;;;;5106706;28;20027;-69
2023/02/27 06:09:42;;;;;;;5.95;2.75;;;2.10;94.70;;;;;;5094655;28;20031;-69
2023/02/27 06:12:07;;;;;;;7.28;2.80;;;2.10;94.80;;;;;;5096742;28;20035;-69
2023/02/27 06:14:33;;;;;;;5.53;2.88;;;2.10;94.80;;;;;;5093426;28;20024;-69
2023/02/27 06:16:59;;;;;;;6.53;3.15;;;2.20;94.80;;;;;;5100468;28;20479;-69
2023/02/27 06:19:24;;;;;;;5.00;2.65;;;2.20;94.90;;;;;;5090369;28;20035;-68
2023/02/27 06:21:50;;;;;;;5.47;2.95;;;2.20;94.90;;;;;;5089110;28;20032;-68
2023/02/27 06:24:15;;;;;;;6.20;3.13;;;2.10;94.90;;;;;;5093475;28;20410;-68
2023/02/27 06:26:41;;;;;;;5.57;2.88;;;2.20;95.00;;;;;;5105037;28;20502;-68
2023/02/27 06:29:07;;;;;;;6.38;2.97;;;2.20;95.00;;;;;;5093485;28;20696;-68
2023/02/27 06:31:32;;;;;;;4.50;2.80;;;2.30;95.10;;;;;;5093914;28;20020;-68
2023/02/27 06:33:58;;;;;;;4.85;2.95;;;2.40;95.10;;;;;;5090812;28;20077;-68
2023/02/27 06:36:23;;;;;;;5.05;2.55;;;2.40;95.10;;;;;;5072844;28;20561;-68
2023/02/27 06:38:49;;;;;;;5.03;2.67;;;2.40;95.10;;;;;;5075162;28;20059;-68
2023/02/27 06:41:15;;;;;;;8.82;2.88;;;2.30;95.10;;;;;;5073720;28;20040;-69
2023/02/27 06:43:40;;;;;;;7.68;2.85;;;2.30;95.20;;;;;;5075015;28;20133;-68
2023/02/27 06:46:06;;;;;;;4.90;3.10;;;2.30;95.20;;;;;;5077404;28;20029;-69
2023/02/27 06:48:32;;;;;;;5.82;3.17;;;2.30;95.30;;;;;;5094932;28;20031;-66
2023/02/27 06:50:58;;;;;;;6.18;3.40;;;2.30;95.40;;;;;;5079523;28;20649;-67
2023/02/27 06:53:24;;;;;;;6.10;3.13;;;2.40;95.40;;;;;;5079871;28;20035;-66
2023/02/27 06:55:50;;;;;;;7.60;3.72;;;2.30;95.30;;;;;;5076267;28;20472;-68
2023/02/27 06:58:16;;;;;;;6.00;3.03;;;2.30;95.40;;;;;;5080157;28;20047;-68
2023/02/27 07:00:42;;;;;;;9.18;2.95;;;2.20;95.50;;;;;;5080100;28;20075;-67
2023/02/27 07:03:08;;;;;;;5.10;2.63;;;2.20;95.70;;;;;;5078144;28;20036;-68
2023/02/27 07:05:34;;;;;;;5.57;2.67;;;2.20;95.70;;;;;;5076831;28;20135;-68
2023/02/27 07:07:59;;;;;;;5.68;3.22;;;2.20;95.70;;;;;;5078745;28;20539;-67
2023/02/27 07:10:25;;;;;;;5.95;2.50;;;2.30;95.70;;;;;;5080518;28;20020;-68
2023/02/27 07:12:51;;;;;;;5.28;2.80;;;2.30;95.70;;;;;;5078232;28;20078;-68
2023/02/27 07:15:16;;;;;;;5.65;3.50;;;2.30;95.80;;;;;;5077103;28;20035;-68
2023/02/27 07:17:42;;;;;;;5.90;2.92;;;2.20;95.80;;;;;;5076749;28;20050;-68
2023/02/27 07:20:09;;;;;;;5.88;3.30;;;2.20;95.90;;;;;;5079305;28;20506;-68
2023/02/27 07:22:36;;;;;;;4.75;2.92;;;2.20;95.90;;;;;;5078782;28;20119;-68
2023/02/27 07:25:02;;;;;;;7.00;2.85;;;2.10;95.90;;;;;;5077194;28;21584;-70
2023/02/27 07:27:27;;;;;;;5.63;3.10;;;2.10;96.00;;;;;;5075992;28;20047;-69
2023/02/27 07:29:53;;;;;;;6.47;3.80;;;2.10;96.10;;;;;;5078001;28;20647;-68
2023/02/27 07:32:19;;;;;;;7.25;3.65;;;2.10;96.10;;;;;;5086853;28;20047;-68
2023/02/27 07:34:44;;;;;;;5.75;3.53;;;2.10;96.50;;;;;;5086166;28;20086;-69
2023/02/27 07:37:10;;;;;;;8.38;2.97;;;2.10;96.70;;;;;;5076508;28;20105;-68
2023/02/27 07:39:35;;;;;;;6.70;3.63;;;2.10;96.70;;;;;;5076603;28;20471;-67
2023/02/27 07:42:01;;;;;;;7.38;3.10;;;2.10;96.70;;;;;;5075366;28;20036;-68
2023/02/27 07:44:27;;;;;;;5.15;4.10;;;2.10;96.70;;;;;;5077211;28;20071;-68
2023/02/27 07:46:52;;;;;;;6.50;3.42;;;2.20;96.60;;;;;;5074915;28;20066;-68
2023/02/27 07:49:18;;;;;;;6.18;3.42;;;2.20;96.60;;;;;;5077759;28;20037;-68
2023/02/27 07:51:44;;;;;;;7.63;4.70;;;2.30;96.70;;;;;;5076149;28;20032;-67
2023/02/27 07:54:09;;;;;;;8.10;3.63;;;2.30;96.70;;;;;;5087381;28;20481;-68
2023/02/27 07:56:35;;;;;;;5.82;3.45;;;2.40;96.70;;;;;;5074547;28;20042;-68
2023/02/27 07:59:01;;;;;;;6.15;3.65;;;2.40;96.90;;;;;;5091809;28;20040;-68
2023/02/27 08:01:26;;;;;;;7.65;3.50;;;2.50;96.60;;;;;;5089352;28;20028;-68
2023/02/27 08:03:52;;;;;;;9.35;3.42;;;2.50;96.70;;;;;;5093321;28;20502;-68
2023/02/27 08:06:17;;;;;;;10.48;4.07;;;2.50;96.70;;;;;;5092657;28;20032;-68
2023/02/27 08:08:43;;;;;;;7.72;3.60;;;2.50;96.60;;;;;;5092961;28;20027;-69
2023/02/27 08:11:09;;;;;;;6.13;4.10;;;2.60;96.60;;;;;;5092884;28;20498;-68
2023/02/27 08:13:34;;;;;;;10.45;4.20;;;2.70;96.60;;;;;;5093649;28;20038;-68
2023/02/27 08:16:00;;;;;;;5.43;3.40;;;2.70;96.60;;;;;;5102284;28;20503;-69
2023/02/27 08:18:26;;;;;;;7.93;3.90;;;2.80;96.60;;;;;;5093070;28;20032;-69
2023/02/27 08:20:54;;;;;;;6.20;3.78;;;2.80;96.70;;;;;;5092750;28;20482;-69
2023/02/27 08:23:20;;;;;;;8.07;4.68;;;2.90;96.70;;;;;;5091834;28;20035;-69
2023/02/27 08:26:09;;;;;;;7.20;3.85;;;3.00;96.80;;;;;;5096574;28;20435;-69
2023/02/27 08:28:35;;;;;;;8.57;4.05;;;3.10;96.70;;;;;;5097657;28;20032;-69
2023/02/27 08:31:00;;;;;;;7.18;3.55;;;3.10;96.60;;;;;;5097730;28;20403;-68
2023/02/27 08:33:26;;;;;;;6.47;3.88;;;3.20;96.70;;;;;;5091109;28;20020;-67
2023/02/27 08:35:54;;;;;;;6.63;3.60;;;3.20;96.70;;;;;;5109127;28;20345;-69
2023/02/27 08:38:20;;;;;;;8.45;3.88;;;3.40;96.70;;;;;;5091772;28;20123;-68
2023/02/27 08:40:46;;;;;;;6.18;3.72;;;3.40;96.50;;;;;;5106620;28;20024;-68
2023/02/27 08:43:11;;;;;;;7.35;3.80;;;3.50;96.50;;;;;;5090936;28;20040;-68
2023/02/27 08:45:37;;;;;;;8.95;4.28;;;3.50;96.50;;;;;;5094557;28;20394;-68
2023/02/27 08:48:02;;;;;;;7.70;3.97;;;3.50;96.60;;;;;;5088438;28;20036;-68
2023/02/27 08:50:28;;;;;;;7.28;4.20;;;3.60;96.50;;;;;;5103625;28;20032;-69
2023/02/27 08:52:54;;;;;;;7.72;5.07;;;3.70;96.30;;;;;;5080686;28;20052;-67
2023/02/27 08:55:20;;;;;;;10.93;4.97;;;3.70;96.00;;;;;;5085432;28;20047;-66
2023/02/27 08:57:45;;;;;;;9.70;4.35;;;3.70;96.10;;;;;;5084259;28;20570;-69
2023/02/27 09:00:13;;;;;;;7.88;4.18;;;3.70;96.10;;;;;;5103894;28;20034;-67
2023/02/27 09:02:39;;;;;;;8.10;4.15;;;3.70;96.10;;;;;;5098865;28;20110;-68
2023/02/27 09:05:05;;;;;;;10.07;4.10;;;3.80;96.10;;;;;;5106121;28;20031;-69
2023/02/27 09:07:33;;;;;;;7.57;4.40;;;3.90;96.20;;;;;;5095091;28;20039;-69
2023/02/27 09:09:59;;;;;;;10.32;5.00;;;4.00;96.00;;;;;;5091296;28;20024;-70
2023/02/27 09:12:24;;;;;;;10.50;5.32;;;4.00;95.90;;;;;;5091432;28;20031;-68
2023/02/27 09:14:50;;;;;;;8.93;4.18;;;3.90;95.90;;;;;;5093137;28;20069;-68
2023/02/27 09:17:15;;;;;;;9.30;4.32;;;3.90;95.90;;;;;;5088340;28;20420;-68
2023/02/27 09:19:41;;;;;;;7.03;3.97;;;4.00;95.90;;;;;;5094421;28;20426;-69
2023/02/27 09:22:07;;;;;;;8.52;4.72;;;4.10;95.90;;;;;;5074955;28;20067;-68
2023/02/27 09:24:32;;;;;;;9.98;5.00;;;4.10;95.80;;;;;;5075175;28;20039;-68
2023/02/27 09:26:58;;;;;;;11.68;4.93;;;4.10;95.80;;;;;;5072313;28;20489;-67
2023/02/27 09:29:24;;;;;;;9.25;4.50;;;4.10;95.70;;;;;;5064484;28;20536;-68
2023/02/27 09:31:50;;;;;;;8.18;4.85;;;4.20;95.70;;;;;;5076522;28;20035;-69
2023/02/27 09:34:16;;;;;;;8.13;3.90;;;4.30;95.70;;;;;;5075074;28;20032;-70
2023/02/27 09:36:42;;;;;;;7.90;4.20;;;4.40;95.90;;;;;;5075663;28;20414;-69
2023/02/27 09:39:08;;;;;;;6.38;4.40;;;4.50;95.50;;;;;;5075204;28;20036;-69
2023/02/27 09:41:50;;;;;;;11.98;5.22;;;4.50;95.40;;;;;;5073499;28;20036;-68
2023/02/27 09:44:31;;;;;;;7.22;4.35;;;4.60;95.40;;;;;;5076807;28;20044;-68
2023/02/27 09:46:57;;;;;;;10.52;4.63;;;4.60;95.30;;;;;;5075180;28;20047;-69
2023/02/27 09:49:27;;;;;;;8.40;4.68;;;4.70;95.30;;;;;;5073976;28;20042;-69
2023/02/27 09:51:52;;;;;;;14.75;6.20;;;4.80;95.20;;;;;;5074051;28;20039;-68
2023/02/27 09:54:18;;;;;;;7.45;4.18;;;4.90;95.10;;;;;;5073117;28;20036;-69
2023/02/27 09:56:51;;;;;;;5.95;3.20;;;5.00;94.90;;;;;;5072290;28;20066;-69
2023/02/27 09:59:35;;;;;;;8.57;4.55;;;5.00;94.70;;;;;;5073662;28;20051;-68
2023/02/27 10:02:29;;;;;;;7.03;3.35;;;5.10;94.40;;;;;;5076792;28;20123;-65
2023/02/27 10:05:04;;;;;;;8.10;4.83;;;5.10;94.30;;;;;;5073636;28;20033;-67
2023/02/27 10:07:55;;;;;;;8.32;3.50;;;5.20;94.30;;;;;;5074600;28;20147;-68
2023/02/27 10:10:42;;;;;;;8.80;4.00;;;5.30;94.50;;;;;;5075518;28;20549;-68
2023/02/27 10:13:27;;;;;;;6.45;3.00;;;5.40;94.00;;;;;;5082825;28;20032;-67
2023/02/27 10:15:53;;;;;;;10.00;4.05;;;5.40;93.90;;;;;;5072821;28;20479;-68
2023/02/27 10:18:21;;;;;;;10.15;3.97;;;5.50;93.80;;;;;;5074456;28;20170;-68
2023/02/27 10:21:05;;;;;;;11.68;4.10;;;5.60;93.70;;;;;;5079610;28;20480;-68
2023/02/27 10:23:43;;;;;;;6.80;3.42;;;5.60;93.60;;;;;;5076721;28;20595;-68
2023/02/27 10:26:29;;;;;;;6.18;3.50;;;5.70;93.40;;;;;;5079634;28;20031;-68
2023/02/27 10:29:01;;;;;;;4.88;2.67;;;5.70;93.10;;;;;;5079758;28;20467;-68
2023/02/27 10:31:32;;;;;;;6.63;3.10;;;5.70;93.20;;;;;;5078391;28;20420;-68
2023/02/27 10:33:59;;;;;;;5.32;3.28;;;5.70;92.80;;;;;;5081108;28;21802;-69
2023/02/27 10:36:25;;;;;;;5.10;2.70;;;5.90;92.90;;;;;;5076833;28;20032;-68
2023/02/27 10:38:55;;;;;;;5.00;3.25;;;5.90;92.70;;;;;;5077815;28;20640;-68
2023/02/27 10:41:22;;;;;;;5.53;3.08;;;5.90;92.40;;;;;;5077808;28;21894;-69
2023/02/27 10:43:49;;;;;;;4.70;2.22;;;5.90;92.20;;;;;;5078276;28;20025;-68
2023/02/27 10:46:26;;;;;;;4.35;2.38;;;6.00;92.10;;;;;;5076726;28;20117;-69
2023/02/27 10:48:52;;;;;;;3.80;2.22;;;6.00;91.60;;;;;;5076795;28;20036;-69
2023/02/27 10:51:30;;;;;;;4.10;2.25;;;6.00;91.70;;;;;;5076513;28;20120;-69
2023/02/27 10:54:14;;;;;;;3.22;2.08;;;6.00;91.60;;;;;;5077446;28;20515;-69
2023/02/27 10:56:42;;;;;;;3.95;2.17;;;6.10;91.70;;;;;;5078442;28;20055;-69
2023/02/27 10:59:31;;;;;;;3.08;2.15;;;6.20;91.50;;;;;;5076336;28;20027;-69
2023/02/27 11:02:02;;;;;;;4.15;2.15;;;6.30;91.20;;;;;;5079343;28;20027;-69
2023/02/27 11:04:32;;;;;;;3.35;1.83;;;6.30;91.20;;;;;;5078706;28;20031;-68
2023/02/27 11:07:00;;;;;;;3.60;1.85;;;6.40;90.50;;;;;;5075175;28;20036;-68
2023/02/27 11:09:33;;;;;;;6.68;1.95;;;6.50;90.70;;;;;;5076437;28;20748;-68
2023/02/27 11:12:38;;;;;;;4.07;1.85;;;6.60;90.60;;;;;;5078619;28;20067;-68
2023/02/27 11:15:16;;;;;;;3.42;1.73;;;6.50;89.40;;;;;;5075187;28;21296;-70
2023/02/27 11:17:42;;;;;;;3.67;1.67;;;6.50;89.10;;;;;;5083064;28;20360;-68
2023/02/27 11:20:31;;;;;;;3.72;2.00;;;6.40;86.40;;;;;;5077310;28;20028;-68
2023/02/27 11:23:19;;;;;;;2.42;1.33;;;6.30;87.50;;;;;;5076085;28;20043;-69
2023/02/27 11:25:45;;;;;;;3.22;1.65;;;6.20;85.50;;;;;;5093326;27;20518;-68
2023/02/27 11:28:28;;;;;;;2.47;1.50;;;6.10;84.00;;;;;;5077618;28;20028;-68
2023/02/27 11:31:20;;;;;;;5.32;2.58;;;6.00;84.10;;;;;;5076971;28;20024;-69
2023/02/27 11:33:53;;;;;;;3.72;2.10;;;6.00;84.10;;;;;;5078322;28;20113;-68
2023/02/27 11:36:22;;;;;;;2.90;1.98;;;5.90;85.10;;;;;;5078303;28;20063;-68
2023/02/27 11:38:55;;;;;;;3.05;1.58;;;5.80;85.00;;;;;;5076006;28;20056;-68
2023/02/27 11:41:31;;;;;;;4.20;2.10;;;5.90;84.50;;;;;;5077705;28;20329;-68
2023/02/27 11:43:59;;;;;;;3.00;2.00;;;6.00;84.40;;;;;;5078967;28;20028;-68
2023/02/27 11:46:25;;;;;;;2.90;1.63;;;6.00;83.40;;;;;;5076038;28;20024;-68
2023/02/27 11:49:15;;;;;;;3.22;1.73;;;6.00;80.90;;;;;;5077227;28;20039;-68
2023/02/27 11:51:50;;;;;;;5.50;2.45;;;6.00;81.60;;;;;;5075953;28;20063;-67
2023/02/27 11:54:39;;;;;;;4.93;3.03;;;6.00;82.30;;;;;;5077930;28;20371;-67
2023/02/27 11:57:18;;;;;;;3.92;1.80;;;6.10;82.90;;;;;;5077062;28;20040;-69
2023/02/27 11:59:50;;;;;;;2.72;1.48;;;6.10;81.30;;;;;;5075140;28;20495;-69
2023/02/27 12:02:48;;;;;;;4.00;1.85;;;6.20;82.70;;;;;;5077189;28;20032;-69
2023/02/27 12:05:17;;;;;;;3.08;1.52;;;6.30;82.50;;;;;;5076090;28;20040;-69
2023/02/27 12:07:49;;;;;;;2.63;1.60;;;6.30;82.90;;;;;;5075658;28;20029;-69
2023/02/27 12:10:19;;;;;;;2.22;1.35;;;6.30;82.50;;;;;;5077287;28;20269;-69
2023/02/27 12:12:50;;;;;;;2.15;1.20;;;6.30;82.20;;;;;;5077928;28;20036;-68
2023/02/27 12:15:35;;;;;;;2.95;1.20;;;6.40;82.80;;;;;;5076751;28;20028;-68
2023/02/27 12:18:20;;;;;;;4.78;1.90;;;6.40;81.60;;;;;;5076305;28;20044;-69
2023/02/27 12:20:53;;;;;;;2.15;1.40;;;6.30;82.40;;;;;;5083091;28;20056;-69
2023/02/27 12:23:25;;;;;;;2.60;1.05;;;6.20;80.70;;;;;;5077067;28;20039;-69
2023/02/27 12:26:00;;;;;;;2.88;1.58;;;6.10;80.90;;;;;;5076072;28;20028;-68
2023/02/27 12:28:36;;;;;;;2.47;1.50;;;6.20;81.50;;;;;;5075328;28;20120;-69
2023/02/27 12:31:21;;;;;;;4.10;1.90;;;6.20;81.80;;;;;;5076453;28;20423;-69
2023/02/27 12:33:59;;;;;;;5.25;2.08;;;6.30;82.00;;;;;;5075237;28;20088;-69
2023/02/27 12:36:24;;;;;;;;;;;6.30;81.90;;;;;;5075850;28;20085;-68
2023/02/27 12:38:51;;;;;;;4.55;2.00;;;6.40;82.40;;;;;;5081023;28;19920;-68
2023/02/27 12:41:55;;;;;;;2.67;1.75;;;6.40;81.90;;;;;;5085209;28;20024;-68
2023/02/27 12:44:40;;;;;;;3.88;1.67;;;6.40;80.50;;;;;;5067618;28;20039;-68
2023/02/27 12:47:18;;;;;;;3.13;1.80;;;6.30;80.70;;;;;;5078446;28;20032;-68
2023/02/27 12:50:17;;;;;;;3.60;1.55;;;6.40;80.60;;;;;;5080142;28;20024;-68
2023/02/27 12:53:11;;;;;;;1.80;1.20;;;6.30;78.50;;;;;;5078353;28;20048;-68
2023/02/27 12:55:43;;;;;;;1.95;1.17;;;6.30;77.60;;;;;;5081598;28;20036;-67
2023/02/27 12:58:18;;;;;;;3.42;1.67;;;6.20;74.80;;;;;;5078417;28;20059;-67
2023/02/27 13:00:59;;;;;;;3.17;1.60;;;6.10;74.70;;;;;;5077772;28;20379;-69
2023/02/27 13:03:34;;;;;;;8.20;2.15;;;6.10;76.10;;;;;;5078879;28;20042;-69
2023/02/27 13:06:18;;;;;;;3.90;2.10;;;6.20;74.90;;;;;;5068312;28;20028;-68
2023/02/27 13:08:46;;;;;;;3.30;2.00;;;6.30;76.10;;;;;;5079518;28;20032;-69
2023/02/27 13:11:35;;;;;;;3.70;1.70;;;6.30;76.40;;;;;;5079154;28;20024;-69
2023/02/27 13:14:25;;;;;;;1.95;1.30;;;6.40;75.80;;;;;;5081361;28;20429;-69
2023/02/27 13:17:07;;;;;;;2.20;1.23;;;6.40;76.00;;;;;;5077597;28;20031;-69
2023/02/27 13:19:51;;;;;;;3.15;1.70;;;6.50;76.20;;;;;;5080946;28;20044;-70
2023/02/27 13:22:29;;;;;;;2.58;1.40;;;6.50;75.50;;;;;;5078272;28;20028;-69
2023/02/27 13:24:58;;;;;;;4.35;1.20;;;6.40;75.80;;;;;;5077939;28;20069;-69